sensor_id;sensor_type;location;lat;lon;timestamp;P1;P2;P0
29460;PMS7003;16428;47.836;35.106;2023-04-19T00:01:46;9.00;8.00;7.00
29460;PMS7003;16428;47.836;35.106;2023-04-19T00:04:14;10.00;10.00;8.67
29460;PMS7003;16428;47.836;35.106;2023-04-19T00:06:42;10.00;10.00;7.67
29460;PMS7003;16428;47.836;35.106;2023-04-19T00:09:10;10.67;9.00;7.33
29460;PMS7003;16428;47.836;35.106;2023-04-19T00:11:38;11.00;11.00;9.00
29460;PMS7003;16428;47.836;35.106;2023-04-19T00:14:05;8.00;8.00;7.00
29460;PMS7003;16428;47.836;35.106;2023-04-19T00:16:33;11.67;9.33;7.00
29460;PMS7003;16428;47.836;35.106;2023-04-19T00:19:00;11.00;11.00;9.00
29460;PMS7003;16428;47.836;35.106;2023-04-19T00:21:28;10.33;10.33;8.00
29460;PMS7003;16428;47.836;35.106;2023-04-19T00:23:55;14.67;12.67;9.00
29460;PMS7003;16428;47.836;35.106;2023-04-19T00:26:23;9.33;9.33;6.67
29460;PMS7003;16428;47.836;35.106;2023-04-19T00:28:50;9.67;9.67;7.67
29460;PMS7003;16428;47.836;35.106;2023-04-19T00:31:17;11.33;9.00;7.67
29460;PMS7003;16428;47.836;35.106;2023-04-19T00:33:45;7.67;7.00;5.67
29460;PMS7003;16428;47.836;35.106;2023-04-19T00:36:12;11.00;9.00;7.00
29460;PMS7003;16428;47.836;35.106;2023-04-19T00:38:40;10.00;7.67;6.00
29460;PMS7003;16428;47.836;35.106;2023-04-19T00:41:07;8.00;8.00;7.67
29460;PMS7003;16428;47.836;35.106;2023-04-19T00:43:35;9.67;9.67;9.00
29460;PMS7003;16428;47.836;35.106;2023-04-19T00:46:02;12.00;8.33;6.33
29460;PMS7003;16428;47.836;35.106;2023-04-19T00:48:30;10.67;9.33;7.33
29460;PMS7003;16428;47.836;35.106;2023-04-19T00:50:58;6.33;6.33;5.00
29460;PMS7003;16428;47.836;35.106;2023-04-19T00:53:26;13.00;10.33;9.33
29460;PMS7003;16428;47.836;35.106;2023-04-19T00:55:53;9.67;9.00;7.33
29460;PMS7003;16428;47.836;35.106;2023-04-19T00:58:24;12.33;8.67;7.33
29460;PMS7003;16428;47.836;35.106;2023-04-19T01:00:54;11.33;9.00;7.67
29460;PMS7003;16428;47.836;35.106;2023-04-19T01:03:21;12.00;9.00;8.00
29460;PMS7003;16428;47.836;35.106;2023-04-19T01:05:49;11.67;9.33;7.33
29460;PMS7003;16428;47.836;35.106;2023-04-19T01:08:16;9.33;8.00;6.00
29460;PMS7003;16428;47.836;35.106;2023-04-19T01:10:44;8.67;7.00;5.00
29460;PMS7003;16428;47.836;35.106;2023-04-19T01:13:11;10.67;9.67;7.33
29460;PMS7003;16428;47.836;35.106;2023-04-19T01:15:39;10.00;8.00;7.00
29460;PMS7003;16428;47.836;35.106;2023-04-19T01:18:07;16.33;12.33;9.00
29460;PMS7003;16428;47.836;35.106;2023-04-19T01:20:35;8.67;8.67;6.00
29460;PMS7003;16428;47.836;35.106;2023-04-19T01:23:02;10.67;10.67;8.67
29460;PMS7003;16428;47.836;35.106;2023-04-19T01:25:30;15.00;9.33;7.33
29460;PMS7003;16428;47.836;35.106;2023-04-19T01:27:57;12.00;10.33;6.67
29460;PMS7003;16428;47.836;35.106;2023-04-19T01:30:25;9.33;9.33;8.00
29460;PMS7003;16428;47.836;35.106;2023-04-19T01:32:52;10.33;10.33;8.33
29460;PMS7003;16428;47.836;35.106;2023-04-19T01:35:19;11.67;11.67;8.67
29460;PMS7003;16428;47.836;35.106;2023-04-19T01:37:47;13.67;9.67;7.00
29460;PMS7003;16428;47.836;35.106;2023-04-19T01:40:15;11.33;8.67;6.00
29460;PMS7003;16428;47.836;35.106;2023-04-19T01:42:42;8.00;8.00;7.00
29460;PMS7003;16428;47.836;35.106;2023-04-19T01:45:10;8.33;8.33;7.00
29460;PMS7003;16428;47.836;35.106;2023-04-19T01:47:37;11.00;9.00;7.00
29460;PMS7003;16428;47.836;35.106;2023-04-19T01:50:05;8.67;8.67;8.33
29460;PMS7003;16428;47.836;35.106;2023-04-19T01:52:33;9.00;8.75;6.00
29460;PMS7003;16428;47.836;35.106;2023-04-19T01:55:00;14.67;12.00;9.67
29460;PMS7003;16428;47.836;35.106;2023-04-19T01:57:28;13.67;11.67;8.00
29460;PMS7003;16428;47.836;35.106;2023-04-19T01:59:56;13.67;12.00;8.67
29460;PMS7003;16428;47.836;35.106;2023-04-19T02:02:23;12.67;12.00;10.33
29460;PMS7003;16428;47.836;35.106;2023-04-19T02:04:51;14.67;14.67;11.00
29460;PMS7003;16428;47.836;35.106;2023-04-19T02:07:18;10.00;10.00;8.00
29460;PMS7003;16428;47.836;35.106;2023-04-19T02:09:45;10.33;10.00;8.67
29460;PMS7003;16428;47.836;35.106;2023-04-19T02:12:13;6.67;6.67;5.33
29460;PMS7003;16428;47.836;35.106;2023-04-19T02:14:40;10.67;8.67;7.00
29460;PMS7003;16428;47.836;35.106;2023-04-19T02:17:08;12.33;9.33;6.67
29460;PMS7003;16428;47.836;35.106;2023-04-19T02:19:35;10.33;7.67;7.67
29460;PMS7003;16428;47.836;35.106;2023-04-19T02:22:03;11.33;9.00;7.00
29460;PMS7003;16428;47.836;35.106;2023-04-19T02:24:30;11.00;9.00;7.33
29460;PMS7003;16428;47.836;35.106;2023-04-19T02:26:58;10.67;10.00;8.00
29460;PMS7003;16428;47.836;35.106;2023-04-19T02:29:26;9.00;9.00;7.00
29460;PMS7003;16428;47.836;35.106;2023-04-19T02:31:54;8.67;8.33;7.67
29460;PMS7003;16428;47.836;35.106;2023-04-19T02:34:21;9.67;8.67;7.67
29460;PMS7003;16428;47.836;35.106;2023-04-19T02:36:49;10.00;10.00;8.33
29460;PMS7003;16428;47.836;35.106;2023-04-19T02:39:16;8.00;7.00;6.00
29460;PMS7003;16428;47.836;35.106;2023-04-19T02:41:44;13.00;10.67;8.00
29460;PMS7003;16428;47.836;35.106;2023-04-19T02:44:11;9.33;9.33;8.00
29460;PMS7003;16428;47.836;35.106;2023-04-19T02:46:39;12.00;10.00;8.00
29460;PMS7003;16428;47.836;35.106;2023-04-19T02:49:07;10.00;10.00;6.67
29460;PMS7003;16428;47.836;35.106;2023-04-19T02:51:35;12.33;11.00;7.67
29460;PMS7003;16428;47.836;35.106;2023-04-19T02:54:02;6.00;6.00;5.00
29460;PMS7003;16428;47.836;35.106;2023-04-19T02:56:30;12.67;10.33;6.33
29460;PMS7003;16428;47.836;35.106;2023-04-19T02:59:01;10.00;10.00;7.00
29460;PMS7003;16428;47.836;35.106;2023-04-19T03:01:29;5.00;5.00;4.00
29460;PMS7003;16428;47.836;35.106;2023-04-19T03:03:57;9.67;7.00;5.33
29460;PMS7003;16428;47.836;35.106;2023-04-19T03:06:25;8.33;6.00;4.33
29460;PMS7003;16428;47.836;35.106;2023-04-19T03:08:52;7.00;7.00;5.00
29460;PMS7003;16428;47.836;35.106;2023-04-19T03:11:19;21.33;9.67;8.00
29460;PMS7003;16428;47.836;35.106;2023-04-19T03:13:47;6.67;6.00;5.33
29460;PMS7003;16428;47.836;35.106;2023-04-19T03:16:15;7.00;6.33;5.67
29460;PMS7003;16428;47.836;35.106;2023-04-19T03:18:42;10.00;10.00;7.67
29460;PMS7003;16428;47.836;35.106;2023-04-19T03:21:13;8.33;8.33;6.00
29460;PMS7003;16428;47.836;35.106;2023-04-19T03:23:40;11.00;10.00;6.67
29460;PMS7003;16428;47.836;35.106;2023-04-19T03:26:07;12.67;7.67;6.00
29460;PMS7003;16428;47.836;35.106;2023-04-19T03:28:35;8.33;7.67;7.00
29460;PMS7003;16428;47.836;35.106;2023-04-19T03:31:02;10.67;8.67;6.00
29460;PMS7003;16428;47.836;35.106;2023-04-19T03:33:30;16.00;8.67;5.33
29460;PMS7003;16428;47.836;35.106;2023-04-19T03:35:57;10.67;9.00;7.00
29460;PMS7003;16428;47.836;35.106;2023-04-19T03:38:25;9.33;7.00;6.33
29460;PMS7003;16428;47.836;35.106;2023-04-19T03:40:52;6.67;6.67;5.67
29460;PMS7003;16428;47.836;35.106;2023-04-19T03:43:22;9.33;9.33;7.67
29460;PMS7003;16428;47.836;35.106;2023-04-19T03:45:50;10.00;7.33;7.00
29460;PMS7003;16428;47.836;35.106;2023-04-19T03:48:18;7.33;6.33;4.33
29460;PMS7003;16428;47.836;35.106;2023-04-19T03:50:45;9.33;7.00;6.00
29460;PMS7003;16428;47.836;35.106;2023-04-19T03:53:12;11.33;9.67;7.00
29460;PMS7003;16428;47.836;35.106;2023-04-19T03:55:40;20.33;8.00;6.00
29460;PMS7003;16428;47.836;35.106;2023-04-19T03:58:07;12.00;11.33;8.67
29460;PMS7003;16428;47.836;35.106;2023-04-19T04:00:35;11.33;9.00;6.33
29460;PMS7003;16428;47.836;35.106;2023-04-19T04:03:02;13.33;9.33;7.33
29460;PMS7003;16428;47.836;35.106;2023-04-19T04:05:30;13.33;8.33;6.00
29460;PMS7003;16428;47.836;35.106;2023-04-19T04:07:58;13.67;12.33;8.00
29460;PMS7003;16428;47.836;35.106;2023-04-19T04:10:26;10.33;8.33;6.00
29460;PMS7003;16428;47.836;35.106;2023-04-19T04:12:53;14.00;11.00;7.00
29460;PMS7003;16428;47.836;35.106;2023-04-19T04:15:21;6.67;6.67;5.00
29460;PMS7003;16428;47.836;35.106;2023-04-19T04:17:48;11.33;8.67;7.00
29460;PMS7003;16428;47.836;35.106;2023-04-19T04:20:17;8.33;7.33;6.00
29460;PMS7003;16428;47.836;35.106;2023-04-19T04:22:45;19.67;9.00;6.33
29460;PMS7003;16428;47.836;35.106;2023-04-19T04:25:13;14.00;9.67;6.67
29460;PMS7003;16428;47.836;35.106;2023-04-19T04:27:41;16.00;8.33;6.33
29460;PMS7003;16428;47.836;35.106;2023-04-19T04:30:13;18.00;16.00;7.00
29460;PMS7003;16428;47.836;35.106;2023-04-19T04:32:41;13.00;8.67;6.00
29460;PMS7003;16428;47.836;35.106;2023-04-19T04:35:09;8.67;8.67;6.33
29460;PMS7003;16428;47.836;35.106;2023-04-19T04:37:37;13.67;9.67;7.33
29460;PMS7003;16428;47.836;35.106;2023-04-19T04:40:04;13.00;10.00;7.00
29460;PMS7003;16428;47.836;35.106;2023-04-19T04:42:33;8.67;8.67;6.67
29460;PMS7003;16428;47.836;35.106;2023-04-19T04:45:00;8.33;6.67;4.00
29460;PMS7003;16428;47.836;35.106;2023-04-19T04:47:31;17.33;12.67;8.33
29460;PMS7003;16428;47.836;35.106;2023-04-19T04:49:59;11.00;8.67;6.00
29460;PMS7003;16428;47.836;35.106;2023-04-19T04:52:28;13.67;9.67;6.33
29460;PMS7003;16428;47.836;35.106;2023-04-19T04:54:56;10.33;10.00;8.33
29460;PMS7003;16428;47.836;35.106;2023-04-19T04:57:23;7.25;6.25;3.00
29460;PMS7003;16428;47.836;35.106;2023-04-19T04:59:50;15.67;12.00;8.00
29460;PMS7003;16428;47.836;35.106;2023-04-19T05:02:18;16.50;12.25;7.00
29460;PMS7003;16428;47.836;35.106;2023-04-19T05:04:45;9.00;8.00;5.25
29460;PMS7003;16428;47.836;35.106;2023-04-19T05:07:13;10.50;8.25;5.75
29460;PMS7003;16428;47.836;35.106;2023-04-19T05:09:41;9.25;8.00;6.00
29460;PMS7003;16428;47.836;35.106;2023-04-19T05:12:08;9.75;8.75;5.00
29460;PMS7003;16428;47.836;35.106;2023-04-19T05:14:35;13.25;12.25;7.25
29460;PMS7003;16428;47.836;35.106;2023-04-19T05:17:03;8.00;6.25;4.75
29460;PMS7003;16428;47.836;35.106;2023-04-19T05:19:33;8.75;8.75;5.25
29460;PMS7003;16428;47.836;35.106;2023-04-19T05:22:00;11.25;8.25;6.75
29460;PMS7003;16428;47.836;35.106;2023-04-19T05:24:27;14.25;9.75;5.75
29460;PMS7003;16428;47.836;35.106;2023-04-19T05:26:55;7.75;7.75;5.75
29460;PMS7003;16428;47.836;35.106;2023-04-19T05:29:22;12.50;10.75;7.25
29460;PMS7003;16428;47.836;35.106;2023-04-19T05:31:50;17.50;13.50;8.75
29460;PMS7003;16428;47.836;35.106;2023-04-19T05:34:18;14.75;11.50;8.25
29460;PMS7003;16428;47.836;35.106;2023-04-19T05:36:48;10.00;9.00;5.50
29460;PMS7003;16428;47.836;35.106;2023-04-19T05:39:15;10.00;9.00;6.75
29460;PMS7003;16428;47.836;35.106;2023-04-19T05:41:43;8.00;8.00;6.00
29460;PMS7003;16428;47.836;35.106;2023-04-19T05:44:10;10.50;9.25;5.25
29460;PMS7003;16428;47.836;35.106;2023-04-19T05:46:38;25.25;15.25;8.75
29460;PMS7003;16428;47.836;35.106;2023-04-19T05:49:05;13.00;9.50;7.00
29460;PMS7003;16428;47.836;35.106;2023-04-19T05:51:33;20.00;10.00;6.00
29460;PMS7003;16428;47.836;35.106;2023-04-19T05:54:00;20.25;11.50;8.75
29460;PMS7003;16428;47.836;35.106;2023-04-19T05:56:28;12.50;10.25;7.00
29460;PMS7003;16428;47.836;35.106;2023-04-19T05:58:55;17.75;8.75;7.25
29460;PMS7003;16428;47.836;35.106;2023-04-19T06:01:23;16.75;12.50;9.25
29460;PMS7003;16428;47.836;35.106;2023-04-19T06:03:50;16.25;11.75;9.00
29460;PMS7003;16428;47.836;35.106;2023-04-19T06:06:20;12.75;10.50;7.75
29460;PMS7003;16428;47.836;35.106;2023-04-19T06:08:49;8.75;7.50;6.00
29460;PMS7003;16428;47.836;35.106;2023-04-19T06:11:20;10.00;8.00;6.75
29460;PMS7003;16428;47.836;35.106;2023-04-19T06:14:04;19.25;9.25;7.00
29460;PMS7003;16428;47.836;35.106;2023-04-19T06:16:33;10.75;8.75;5.75
29460;PMS7003;16428;47.836;35.106;2023-04-19T06:19:01;13.25;8.50;5.50
29460;PMS7003;16428;47.836;35.106;2023-04-19T06:21:29;9.00;6.50;5.00
29460;PMS7003;16428;47.836;35.106;2023-04-19T06:23:57;14.50;9.50;6.25
29460;PMS7003;16428;47.836;35.106;2023-04-19T06:26:25;8.50;7.00;5.00
29460;PMS7003;16428;47.836;35.106;2023-04-19T06:28:52;11.50;7.25;5.75
29460;PMS7003;16428;47.836;35.106;2023-04-19T06:31:20;16.00;9.00;6.25
29460;PMS7003;16428;47.836;35.106;2023-04-19T06:33:47;13.00;9.75;6.25
29460;PMS7003;16428;47.836;35.106;2023-04-19T06:36:15;13.00;7.25;5.50
29460;PMS7003;16428;47.836;35.106;2023-04-19T06:38:42;23.75;18.25;13.75
29460;PMS7003;16428;47.836;35.106;2023-04-19T06:41:12;12.00;6.25;4.50
29460;PMS7003;16428;47.836;35.106;2023-04-19T06:43:40;13.50;9.25;6.75
29460;PMS7003;16428;47.836;35.106;2023-04-19T06:46:08;7.50;7.50;5.50
29460;PMS7003;16428;47.836;35.106;2023-04-19T06:48:36;14.25;8.00;5.00
29460;PMS7003;16428;47.836;35.106;2023-04-19T06:51:04;13.00;8.50;6.00
29460;PMS7003;16428;47.836;35.106;2023-04-19T06:53:33;9.50;9.00;5.75
29460;PMS7003;16428;47.836;35.106;2023-04-19T06:56:02;26.25;24.50;16.50
29460;PMS7003;16428;47.836;35.106;2023-04-19T06:58:32;6.00;5.50;4.25
29460;PMS7003;16428;47.836;35.106;2023-04-19T07:01:02;10.00;9.00;7.50
29460;PMS7003;16428;47.836;35.106;2023-04-19T07:03:31;8.00;6.75;5.75
29460;PMS7003;16428;47.836;35.106;2023-04-19T07:05:59;8.25;6.75;6.00
29460;PMS7003;16428;47.836;35.106;2023-04-19T07:08:27;11.50;9.25;5.75
29460;PMS7003;16428;47.836;35.106;2023-04-19T07:11:14;12.75;8.75;6.00
29460;PMS7003;16428;47.836;35.106;2023-04-19T07:13:41;9.75;9.25;8.00
29460;PMS7003;16428;47.836;35.106;2023-04-19T07:16:09;15.75;9.50;7.25
29460;PMS7003;16428;47.836;35.106;2023-04-19T07:18:37;12.75;6.25;5.00
29460;PMS7003;16428;47.836;35.106;2023-04-19T07:21:04;15.00;8.25;6.00
29460;PMS7003;16428;47.836;35.106;2023-04-19T07:23:32;12.00;6.25;5.25
29460;PMS7003;16428;47.836;35.106;2023-04-19T07:25:59;10.25;8.75;6.75
29460;PMS7003;16428;47.836;35.106;2023-04-19T07:28:29;10.75;8.50;5.75
29460;PMS7003;16428;47.836;35.106;2023-04-19T07:30:57;13.75;10.75;8.00
29460;PMS7003;16428;47.836;35.106;2023-04-19T07:33:26;8.50;8.25;6.25
29460;PMS7003;16428;47.836;35.106;2023-04-19T07:35:54;12.50;7.75;6.25
29460;PMS7003;16428;47.836;35.106;2023-04-19T07:38:23;9.75;7.50;5.25
29460;PMS7003;16428;47.836;35.106;2023-04-19T07:40:51;9.50;9.00;7.50
29460;PMS7003;16428;47.836;35.106;2023-04-19T07:43:19;12.25;8.25;6.50
29460;PMS7003;16428;47.836;35.106;2023-04-19T07:45:47;12.00;5.50;5.00
29460;PMS7003;16428;47.836;35.106;2023-04-19T07:48:14;10.50;7.75;3.50
29460;PMS7003;16428;47.836;35.106;2023-04-19T07:50:42;10.25;7.75;6.25
29460;PMS7003;16428;47.836;35.106;2023-04-19T07:53:09;10.00;7.00;6.00
29460;PMS7003;16428;47.836;35.106;2023-04-19T07:55:37;10.75;9.00;7.00
29460;PMS7003;16428;47.836;35.106;2023-04-19T07:58:04;9.75;9.00;7.75
29460;PMS7003;16428;47.836;35.106;2023-04-19T08:00:32;11.75;8.50;7.00
29460;PMS7003;16428;47.836;35.106;2023-04-19T08:03:02;13.75;9.00;6.50
29460;PMS7003;16428;47.836;35.106;2023-04-19T08:05:30;10.50;8.75;6.00
29460;PMS7003;16428;47.836;35.106;2023-04-19T08:07:58;7.50;6.25;5.75
29460;PMS7003;16428;47.836;35.106;2023-04-19T08:10:25;11.25;8.25;6.25
29460;PMS7003;16428;47.836;35.106;2023-04-19T08:12:54;8.50;6.50;5.50
29460;PMS7003;16428;47.836;35.106;2023-04-19T08:15:32;11.50;7.75;6.00
29460;PMS7003;16428;47.836;35.106;2023-04-19T08:18:03;9.00;9.00;7.50
29460;PMS7003;16428;47.836;35.106;2023-04-19T08:20:32;11.25;9.75;7.50
29460;PMS7003;16428;47.836;35.106;2023-04-19T08:22:59;10.50;8.25;7.50
29460;PMS7003;16428;47.836;35.106;2023-04-19T08:25:40;9.50;7.00;6.00
29460;PMS7003;16428;47.836;35.106;2023-04-19T08:28:07;11.00;7.00;5.00
29460;PMS7003;16428;47.836;35.106;2023-04-19T08:30:35;9.50;9.50;8.25
29460;PMS7003;16428;47.836;35.106;2023-04-19T08:33:02;8.75;5.75;4.50
29460;PMS7003;16428;47.836;35.106;2023-04-19T08:35:30;7.00;6.25;6.00
29460;PMS7003;16428;47.836;35.106;2023-04-19T08:37:58;14.75;9.50;8.00
29460;PMS7003;16428;47.836;35.106;2023-04-19T08:40:25;12.00;8.00;6.50
29460;PMS7003;16428;47.836;35.106;2023-04-19T08:42:52;10.75;8.75;8.00
29460;PMS7003;16428;47.836;35.106;2023-04-19T08:45:20;11.25;11.25;8.25
29460;PMS7003;16428;47.836;35.106;2023-04-19T08:47:55;9.25;9.25;6.50
29460;PMS7003;16428;47.836;35.106;2023-04-19T08:50:28;7.25;5.75;5.50
29460;PMS7003;16428;47.836;35.106;2023-04-19T08:53:07;9.00;6.75;6.25
29460;PMS7003;16428;47.836;35.106;2023-04-19T08:55:39;10.00;8.50;5.75
29460;PMS7003;16428;47.836;35.106;2023-04-19T08:58:29;7.00;7.00;6.00
29460;PMS7003;16428;47.836;35.106;2023-04-19T09:01:19;9.20;9.00;7.80
29460;PMS7003;16428;47.836;35.106;2023-04-19T09:03:50;9.20;8.20;6.40
29460;PMS7003;16428;47.836;35.106;2023-04-19T09:06:39;12.60;8.00;6.60
29460;PMS7003;16428;47.836;35.106;2023-04-19T09:11:54;12.75;7.25;6.50
29460;PMS7003;16428;47.836;35.106;2023-04-19T09:14:24;9.80;6.80;5.20
29460;PMS7003;16428;47.836;35.106;2023-04-19T09:16:53;7.60;7.60;6.00
29460;PMS7003;16428;47.836;35.106;2023-04-19T09:19:47;1.80;1.80;1.40
29460;PMS7003;16428;47.836;35.106;2023-04-19T09:22:16;6.40;6.40;5.40
29460;PMS7003;16428;47.836;35.106;2023-04-19T09:24:44;13.00;8.25;6.50
29460;PMS7003;16428;47.836;35.106;2023-04-19T09:27:32;11.40;7.60;5.80
29460;PMS7003;16428;47.836;35.106;2023-04-19T09:30:03;7.20;7.20;5.60
29460;PMS7003;16428;47.836;35.106;2023-04-19T09:32:44;8.20;7.60;6.80
29460;PMS7003;16428;47.836;35.106;2023-04-19T09:35:13;9.60;8.60;7.00
29460;PMS7003;16428;47.836;35.106;2023-04-19T09:37:41;7.40;7.40;5.60
29460;PMS7003;16428;47.836;35.106;2023-04-19T09:40:21;8.00;6.00;5.00
29460;PMS7003;16428;47.836;35.106;2023-04-19T09:42:50;9.00;7.60;6.40
29460;PMS7003;16428;47.836;35.106;2023-04-19T09:45:20;9.00;6.75;6.75
29460;PMS7003;16428;47.836;35.106;2023-04-19T09:48:04;10.25;10.25;7.00
29460;PMS7003;16428;47.836;35.106;2023-04-19T09:50:36;7.50;7.50;5.75
29460;PMS7003;16428;47.836;35.106;2023-04-19T09:53:27;11.75;8.25;5.75
29460;PMS7003;16428;47.836;35.106;2023-04-19T09:55:56;9.00;5.75;4.25
29460;PMS7003;16428;47.836;35.106;2023-04-19T09:58:29;10.25;6.75;6.00
29460;PMS7003;16428;47.836;35.106;2023-04-19T10:01:15;8.00;6.25;5.50
29460;PMS7003;16428;47.836;35.106;2023-04-19T10:03:46;8.00;8.00;7.00
29460;PMS7003;16428;47.836;35.106;2023-04-19T10:06:16;7.50;6.50;6.00
29460;PMS7003;16428;47.836;35.106;2023-04-19T10:08:49;10.50;8.50;7.00
29460;PMS7003;16428;47.836;35.106;2023-04-19T10:11:20;7.75;6.50;5.75
29460;PMS7003;16428;47.836;35.106;2023-04-19T10:13:48;6.00;6.00;5.00
29460;PMS7003;16428;47.836;35.106;2023-04-19T10:16:23;14.75;10.00;8.00
29460;PMS7003;16428;47.836;35.106;2023-04-19T10:18:52;5.25;5.25;5.00
29460;PMS7003;16428;47.836;35.106;2023-04-19T10:21:21;8.75;7.00;5.75
29460;PMS7003;16428;47.836;35.106;2023-04-19T10:23:49;12.75;8.25;6.75
29460;PMS7003;16428;47.836;35.106;2023-04-19T10:26:16;13.50;8.50;6.00
29460;PMS7003;16428;47.836;35.106;2023-04-19T10:28:44;9.25;9.00;7.00
29460;PMS7003;16428;47.836;35.106;2023-04-19T10:31:13;12.25;11.00;9.25
29460;PMS7003;16428;47.836;35.106;2023-04-19T10:33:40;13.75;8.25;7.00
29460;PMS7003;16428;47.836;35.106;2023-04-19T10:36:08;10.50;8.25;6.25
29460;PMS7003;16428;47.836;35.106;2023-04-19T10:41:15;11.75;9.50;8.50
29460;PMS7003;16428;47.836;35.106;2023-04-19T10:48:52;12.25;9.75;7.25
29460;PMS7003;16428;47.836;35.106;2023-04-19T10:51:27;10.00;8.00;7.25
29460;PMS7003;16428;47.836;35.106;2023-04-19T10:53:58;8.00;8.00;7.00
29460;PMS7003;16428;47.836;35.106;2023-04-19T11:04:20;11.25;8.50;7.00
29460;PMS7003;16428;47.836;35.106;2023-04-19T11:09:34;14.25;13.75;11.00
29460;PMS7003;16428;47.836;35.106;2023-04-19T11:12:09;9.75;7.00;7.00
29460;PMS7003;16428;47.836;35.106;2023-04-19T11:14:39;11.25;10.25;7.00
29460;PMS7003;16428;47.836;35.106;2023-04-19T11:19:58;8.00;8.00;6.25
29460;PMS7003;16428;47.836;35.106;2023-04-19T11:22:29;12.25;11.50;8.75
29460;PMS7003;16428;47.836;35.106;2023-04-19T11:27:40;12.75;12.50;9.00
29460;PMS7003;16428;47.836;35.106;2023-04-19T11:30:10;24.25;13.25;9.50
29460;PMS7003;16428;47.836;35.106;2023-04-19T11:32:46;14.25;11.25;9.50
29460;PMS7003;16428;47.836;35.106;2023-04-19T11:35:17;10.25;9.75;7.75
29460;PMS7003;16428;47.836;35.106;2023-04-19T11:37:46;10.00;8.50;6.75
29460;PMS7003;16428;47.836;35.106;2023-04-19T11:40:15;11.50;10.25;7.25
29460;PMS7003;16428;47.836;35.106;2023-04-19T11:42:44;12.50;9.50;7.00
29460;PMS7003;16428;47.836;35.106;2023-04-19T11:45:23;13.75;9.50;7.50
29460;PMS7003;16428;47.836;35.106;2023-04-19T11:48:00;12.25;12.25;10.00
29460;PMS7003;16428;47.836;35.106;2023-04-19T11:50:37;17.75;13.25;10.50
29460;PMS7003;16428;47.836;35.106;2023-04-19T11:53:11;12.75;8.50;7.50
29460;PMS7003;16428;47.836;35.106;2023-04-19T11:55:49;11.25;9.50;8.25
29460;PMS7003;16428;47.836;35.106;2023-04-19T11:58:27;10.00;10.00;8.50
29460;PMS7003;16428;47.836;35.106;2023-04-19T12:01:11;16.25;9.75;7.50
29460;PMS7003;16428;47.836;35.106;2023-04-19T12:06:12;11.75;9.00;7.50
29460;PMS7003;16428;47.836;35.106;2023-04-19T12:08:42;7.75;7.75;5.75
29460;PMS7003;16428;47.836;35.106;2023-04-19T12:11:09;14.25;8.50;7.50
29460;PMS7003;16428;47.836;35.106;2023-04-19T12:13:37;11.25;10.75;8.50
29460;PMS7003;16428;47.836;35.106;2023-04-19T12:16:06;13.00;10.25;7.50
29460;PMS7003;16428;47.836;35.106;2023-04-19T12:18:45;13.50;12.25;7.25
29460;PMS7003;16428;47.836;35.106;2023-04-19T12:21:26;12.25;12.25;9.50
29460;PMS7003;16428;47.836;35.106;2023-04-19T12:23:55;16.50;16.00;10.50
29460;PMS7003;16428;47.836;35.106;2023-04-19T12:26:25;12.50;11.75;9.00
29460;PMS7003;16428;47.836;35.106;2023-04-19T12:28:54;13.00;9.75;8.75
29460;PMS7003;16428;47.836;35.106;2023-04-19T12:31:23;16.25;14.25;10.25
29460;PMS7003;16428;47.836;35.106;2023-04-19T12:33:50;15.75;13.50;10.25
29460;PMS7003;16428;47.836;35.106;2023-04-19T12:36:18;12.75;12.00;10.25
29460;PMS7003;16428;47.836;35.106;2023-04-19T12:38:47;13.00;9.00;8.00
29460;PMS7003;16428;47.836;35.106;2023-04-19T12:41:14;14.00;14.00;10.25
29460;PMS7003;16428;47.836;35.106;2023-04-19T12:43:41;17.75;15.00;10.25
29460;PMS7003;16428;47.836;35.106;2023-04-19T12:46:09;10.00;9.25;7.50
29460;PMS7003;16428;47.836;35.106;2023-04-19T12:48:37;14.50;10.75;9.00
29460;PMS7003;16428;47.836;35.106;2023-04-19T12:51:04;10.50;10.50;9.00
29460;PMS7003;16428;47.836;35.106;2023-04-19T12:53:32;11.50;11.50;9.00
29460;PMS7003;16428;47.836;35.106;2023-04-19T12:55:59;12.75;11.00;8.25
29460;PMS7003;16428;47.836;35.106;2023-04-19T12:58:26;16.00;13.00;10.25
29460;PMS7003;16428;47.836;35.106;2023-04-19T13:00:54;17.25;11.75;9.00
29460;PMS7003;16428;47.836;35.106;2023-04-19T13:03:21;12.50;11.00;8.25
29460;PMS7003;16428;47.836;35.106;2023-04-19T13:05:49;14.00;13.50;10.75
29460;PMS7003;16428;47.836;35.106;2023-04-19T13:08:17;12.75;12.25;8.25
29460;PMS7003;16428;47.836;35.106;2023-04-19T13:11:03;15.75;13.75;9.25
29460;PMS7003;16428;47.836;35.106;2023-04-19T13:13:31;16.00;13.75;9.75
29460;PMS7003;16428;47.836;35.106;2023-04-19T13:15:58;20.50;15.00;11.00
29460;PMS7003;16428;47.836;35.106;2023-04-19T13:18:26;12.00;10.50;9.00
29460;PMS7003;16428;47.836;35.106;2023-04-19T13:20:54;20.75;17.75;12.00
29460;PMS7003;16428;47.836;35.106;2023-04-19T13:23:21;16.00;15.00;10.50
29460;PMS7003;16428;47.836;35.106;2023-04-19T13:25:48;16.75;16.75;12.00
29460;PMS7003;16428;47.836;35.106;2023-04-19T13:28:16;15.75;14.25;10.75
29460;PMS7003;16428;47.836;35.106;2023-04-19T13:30:43;21.67;19.33;15.00
29460;PMS7003;16428;47.836;35.106;2023-04-19T13:33:11;18.25;14.50;12.50
29460;PMS7003;16428;47.836;35.106;2023-04-19T13:35:39;20.50;17.00;13.50
29460;PMS7003;16428;47.836;35.106;2023-04-19T13:38:07;22.50;18.50;14.00
29460;PMS7003;16428;47.836;35.106;2023-04-19T13:40:34;21.75;18.75;13.50
29460;PMS7003;16428;47.836;35.106;2023-04-19T13:43:02;20.50;19.75;15.00
29460;PMS7003;16428;47.836;35.106;2023-04-19T13:45:29;20.25;20.25;15.50
29460;PMS7003;16428;47.836;35.106;2023-04-19T13:47:57;20.50;18.00;11.50
29460;PMS7003;16428;47.836;35.106;2023-04-19T13:50:24;25.67;23.00;17.00
29460;PMS7003;16428;47.836;35.106;2023-04-19T13:52:51;22.00;18.67;14.33
29460;PMS7003;16428;47.836;35.106;2023-04-19T13:55:19;22.67;20.33;14.00
29460;PMS7003;16428;47.836;35.106;2023-04-19T13:57:47;22.33;18.33;13.33
29460;PMS7003;16428;47.836;35.106;2023-04-19T14:00:14;21.33;20.33;16.00
29460;PMS7003;16428;47.836;35.106;2023-04-19T14:02:42;24.00;22.00;16.00
29460;PMS7003;16428;47.836;35.106;2023-04-19T14:05:11;20.33;20.33;18.33
29460;PMS7003;16428;47.836;35.106;2023-04-19T14:07:39;20.67;14.00;13.00
29460;PMS7003;16428;47.836;35.106;2023-04-19T14:10:07;24.33;22.67;15.00
29460;PMS7003;16428;47.836;35.106;2023-04-19T14:12:36;18.50;18.25;15.50
29460;PMS7003;16428;47.836;35.106;2023-04-19T14:15:03;22.33;19.00;13.67
29460;PMS7003;16428;47.836;35.106;2023-04-19T14:17:31;25.00;21.00;16.00
29460;PMS7003;16428;47.836;35.106;2023-04-19T14:19:59;17.33;17.33;13.33
29460;PMS7003;16428;47.836;35.106;2023-04-19T14:22:26;27.00;22.00;17.67
29460;PMS7003;16428;47.836;35.106;2023-04-19T14:24:54;25.00;23.00;19.00
29460;PMS7003;16428;47.836;35.106;2023-04-19T14:27:22;25.00;24.00;18.67
29460;PMS7003;16428;47.836;35.106;2023-04-19T14:29:52;23.00;19.00;15.50
29460;PMS7003;16428;47.836;35.106;2023-04-19T14:32:19;29.33;25.33;20.00
29460;PMS7003;16428;47.836;35.106;2023-04-19T14:34:53;25.00;24.33;18.33
29460;PMS7003;16428;47.836;35.106;2023-04-19T14:37:22;22.67;22.67;18.00